WAPH/LAH METAR and TAF weather

Enter ICAO airport designator
Station Type Date Time Source
WAPH METAR UTC NOAA

Error!


Station Type Date Time Source
WAPH Decoded METAR UTC NOAA

Error!

Station Type Date Time Source
WAPH TAF 2014/03/31 18:15 UTC NOAA

TAF WAPH 311700Z 3118/0106 VRB03KT 9000 SCT018
BECMG 0101/0103 30008KT


Example: see airport list